Time;durP1;ratioP1;P1;durP2;ratioP2;P2;SDS_P1;SDS_P2;PMS_P1;PMS_P2;Temp;Humidity;BMP_temperature;BMP_pressure;BME280_temperature;BME280_humidity;BME280_pressure;Samples;Min_cycle;Max_cycle;Signal;HPM_P1;HPM_P2
2024/04/17 00:01:23;;;;;;;;;;;;;;;;;;5451745;26;19956;-62
2024/04/17 00:03:48;;;;;;;;;;;;;;;;;;5451693;26;19937;-62
2024/04/17 00:06:13;;;;;;;;;;;;;;;;;;5451198;26;19936;-62
2024/04/17 00:08:38;;;;;;;;;;;;;;;;;;5451653;26;20012;-62
2024/04/17 00:11:03;;;;;;;;;;;;;;;;;;5451461;26;19943;-62
2024/04/17 00:13:28;;;;;;;;;;;;;;;;;;5457683;26;19929;-62
2024/04/17 00:15:53;;;;;;;;;;;;;;;;;;5450421;26;19933;-62
2024/04/17 00:18:18;;;;;;;;;;;;;;;;;;5420668;26;19941;-62
2024/04/17 00:20:44;;;;;;;;;;;;;;;;;;5416569;26;19936;-62
2024/04/17 00:23:09;;;;;;;;;;;;;;;;;;5416782;26;19978;-62
2024/04/17 00:25:34;;;;;;;;;;;;;;;;;;5416627;26;20366;-62
2024/04/17 00:27:59;;;;;;;;;;;;;;;;;;5416509;26;19929;-62
2024/04/17 00:30:24;;;;;;;;;;;;;;;;;;5423443;26;19937;-62
2024/04/17 00:32:49;;;;;;;;;;;;;;;;;;5451099;26;20488;-61
2024/04/17 00:35:14;;;;;;;;;;;;;;;;;;5451277;26;19929;-62
2024/04/17 00:37:40;;;;;;;;;;;;;;;;;;5451009;26;19928;-62
2024/04/17 00:40:05;;;;;;;;;;;;;;;;;;5451281;26;19986;-62
2024/04/17 00:42:30;;;;;;;;;;;;;;;;;;5453096;26;20393;-62
2024/04/17 00:44:55;;;;;;;;;;;;;;;;;;5454598;26;20357;-62
2024/04/17 00:47:20;;;;;;;;;;;;;;;;;;5450336;26;20269;-62
2024/04/17 00:49:45;;;;;;;;;;;;;;;;;;5438239;26;20270;-62
2024/04/17 00:52:10;;;;;;;;;;;;;;;;;;5416075;26;20391;-62
2024/04/17 00:54:35;;;;;;;;;;;;;;;;;;5415711;26;19944;-62
2024/04/17 00:57:01;;;;;;;;;;;;;;;;;;5416193;26;19929;-62
2024/04/17 00:59:26;;;;;;;;;;;;;;;;;;5416182;26;20258;-62
2024/04/17 01:01:51;;;;;;;;;;;;;;;;;;5415127;26;19998;-62
2024/04/17 01:04:16;;;;;;;;;;;;;;;;;;5450090;26;19943;-62
2024/04/17 01:06:41;;;;;;;;;;;;;;;;;;5450744;26;19934;-62
2024/04/17 01:09:06;;;;;;;;;;;;;;;;;;5449374;26;19939;-62
2024/04/17 01:11:31;;;;;;;;;;;;;;;;;;5450943;26;20004;-62
2024/04/17 01:13:56;;;;;;;;;;;;;;;;;;5455975;26;19936;-62
2024/04/17 01:16:21;;;;;;;;;;;;;;;;;;5450641;26;19928;-62
2024/04/17 01:18:47;;;;;;;;;;;;;;;;;;5454899;26;19929;-62
2024/04/17 01:21:12;;;;;;;;;;;;;;;;;;5452378;26;19932;-62
2024/04/17 01:23:37;;;;;;;;;;;;;;;;;;5450537;26;19998;-63
2024/04/17 01:26:02;;;;;;;;;;;;;;;;;;5450469;26;19964;-62
2024/04/17 01:28:27;;;;;;;;;;;;;;;;;;5449507;26;19928;-62
2024/04/17 01:30:52;;;;;;;;;;;;;;;;;;5452651;26;19936;-62
2024/04/17 01:33:17;;;;;;;;;;;;;;;;;;5449994;26;20389;-61
2024/04/17 01:35:42;;;;;;;;;;;;;;;;;;5445426;26;19936;-61
2024/04/17 01:38:08;;;;;;;;;;;;;;;;;;5415610;26;19931;-61
2024/04/17 01:40:33;;;;;;;;;;;;;;;;;;5450036;26;19928;-61
2024/04/17 01:42:58;;;;;;;;;;;;;;;;;;5455069;26;19928;-61
2024/04/17 01:45:23;;;;;;;;;;;;;;;;;;5450063;26;19928;-61
2024/04/17 01:47:48;;;;;;;;;;;;;;;;;;5450282;26;20372;-61
2024/04/17 01:50:13;;;;;;;;;;;;;;;;;;5449870;26;20336;-62
2024/04/17 01:52:38;;;;;;;;;;;;;;;;;;5450235;26;19928;-61
2024/04/17 01:55:05;;;;;;;;;;;;;;;;;;5450005;26;20006;-62
2024/04/17 01:57:31;;;;;;;;;;;;;;;;;;5449873;26;19943;-61
2024/04/17 01:59:56;;;;;;;;;;;;;;;;;;5449915;26;19941;-61
2024/04/17 02:02:21;;;;;;;;;;;;;;;;;;5449800;26;19928;-61
2024/04/17 02:04:46;;;;;;;;;;;;;;;;;;5449780;26;19935;-61
2024/04/17 02:07:11;;;;;;;;;;;;;;;;;;5449222;26;19941;-62
2024/04/17 02:09:36;;;;;;;;;;;;;;;;;;5449888;26;19929;-62
2024/04/17 02:12:01;;;;;;;;;;;;;;;;;;5449910;26;20021;-61
2024/04/17 02:14:26;;;;;;;;;;;;;;;;;;5423695;26;19936;-59
2024/04/17 02:16:52;;;;;;;;;;;;;;;;;;5414821;26;19929;-59
2024/04/17 02:19:17;;;;;;;;;;;;;;;;;;5425891;26;20262;-59
2024/04/17 02:21:42;;;;;;;;;;;;;;;;;;5418363;26;20369;-59
2024/04/17 02:24:07;;;;;;;;;;;;;;;;;;5418422;26;20362;-58
2024/04/17 02:26:32;;;;;;;;;;;;;;;;;;5431469;26;19928;-59
2024/04/17 02:28:57;;;;;;;;;;;;;;;;;;5451576;26;19960;-58
2024/04/17 02:31:22;;;;;;;;;;;;;;;;;;5453954;26;20021;-59
2024/04/17 02:33:47;;;;;;;;;;;;;;;;;;5452642;26;19936;-59
2024/04/17 02:36:12;;;;;;;;;;;;;;;;;;5452742;26;19928;-59
2024/04/17 02:38:38;;;;;;;;;;;;;;;;;;5453077;26;19928;-61
2024/04/17 02:41:03;;;;;;;;;;;;;;;;;;5452862;26;20336;-59
2024/04/17 02:43:28;;;;;;;;;;;;;;;;;;5457035;26;20444;-60
2024/04/17 02:45:53;;;;;;;;;;;;;;;;;;5452594;26;20367;-60
2024/04/17 02:48:18;;;;;;;;;;;;;;;;;;5443057;26;19937;-60
2024/04/17 02:50:43;;;;;;;;;;;;;;;;;;5417965;26;19936;-61
2024/04/17 02:53:09;;;;;;;;;;;;;;;;;;5417673;26;20399;-60
2024/04/17 02:55:34;;;;;;;;;;;;;;;;;;5450659;26;19936;-60
2024/04/17 02:57:59;;;;;;;;;;;;;;;;;;5452519;26;19936;-60
2024/04/17 03:00:24;;;;;;;;;;;;;;;;;;5451989;26;19936;-60
2024/04/17 03:02:49;;;;;;;;;;;;;;;;;;5452419;26;19928;-60
2024/04/17 03:05:14;;;;;;;;;;;;;;;;;;5452502;26;20277;-60
2024/04/17 03:07:39;;;;;;;;;;;;;;;;;;5452197;26;19928;-60
2024/04/17 03:10:05;;;;;;;;;;;;;;;;;;5452111;26;19936;-60
2024/04/17 03:12:30;;;;;;;;;;;;;;;;;;5452463;26;19940;-60
2024/04/17 03:14:56;;;;;;;;;;;;;;;;;;5418933;26;19936;-60
2024/04/17 03:17:21;;;;;;;;;;;;;;;;;;5417464;26;19929;-60
2024/04/17 03:19:47;;;;;;;;;;;;;;;;;;5417468;26;19998;-60
2024/04/17 03:22:12;;;;;;;;;;;;;;;;;;5446988;26;19934;-60
2024/04/17 03:24:37;;;;;;;;;;;;;;;;;;5452416;26;19936;-60
2024/04/17 03:27:02;;;;;;;;;;;;;;;;;;5452348;26;19940;-60
2024/04/17 03:29:27;;;;;;;;;;;;;;;;;;5451129;26;19928;-60
2024/04/17 03:31:52;;;;;;;;;;;;;;;;;;5450562;26;19932;-60
2024/04/17 03:34:17;;;;;;;;;;;;;;;;;;5451893;26;20558;-60
2024/04/17 03:36:42;;;;;;;;;;;;;;;;;;5451861;26;20358;-60
2024/04/17 03:39:08;;;;;;;;;;;;;;;;;;5451821;26;20269;-60
2024/04/17 03:41:33;;;;;;;;;;;;;;;;;;5451844;26;20377;-60
2024/04/17 03:43:58;;;;;;;;;;;;;;;;;;5434777;26;19936;-60
2024/04/17 03:46:23;;;;;;;;;;;;;;;;;;5419258;26;19937;-60
2024/04/17 03:48:48;;;;;;;;;;;;;;;;;;5417116;26;19936;-60
2024/04/17 03:51:13;;;;;;;;;;;;;;;;;;5416705;26;19959;-60
2024/04/17 03:53:38;;;;;;;;;;;;;;;;;;5417244;26;19998;-61
2024/04/17 03:56:03;;;;;;;;;;;;;;;;;;5444438;26;19928;-60
2024/04/17 03:58:29;;;;;;;;;;;;;;;;;;5451463;26;19936;-61
2024/04/17 04:00:54;;;;;;;;;;;;;;;;;;5451493;26;20472;-61
2024/04/17 04:03:19;;;;;;;;;;;;;;;;;;5451605;26;19944;-61
2024/04/17 04:05:44;;;;;;;;;;;;;;;;;;5451628;26;20448;-61
2024/04/17 04:08:09;;;;;;;;;;;;;;;;;;5451522;26;20005;-58
2024/04/17 04:10:34;;;;;;;;;;;;;;;;;;5451738;26;19928;-59
2024/04/17 04:13:00;;;;;;;;;;;;;;;;;;5444527;26;19929;-62
2024/04/17 04:15:25;;;;;;;;;;;;;;;;;;5416685;26;20262;-61
2024/04/17 04:17:50;;;;;;;;;;;;;;;;;;5416617;26;19929;-62
2024/04/17 04:20:15;;;;;;;;;;;;;;;;;;5416586;26;19929;-61
2024/04/17 04:22:40;;;;;;;;;;;;;;;;;;5416715;26;19948;-60
2024/04/17 04:25:05;;;;;;;;;;;;;;;;;;5418821;26;19929;-60
2024/04/17 04:27:31;;;;;;;;;;;;;;;;;;5421195;26;19936;-61
2024/04/17 04:29:56;;;;;;;;;;;;;;;;;;5442224;26;19940;-61
2024/04/17 04:32:21;;;;;;;;;;;;;;;;;;5451463;26;19936;-60
2024/04/17 04:34:46;;;;;;;;;;;;;;;;;;5450846;26;20365;-60
2024/04/17 04:37:11;;;;;;;;;;;;;;;;;;5451492;26;20365;-59
2024/04/17 04:39:36;;;;;;;;;;;;;;;;;;5438564;26;20373;-60
2024/04/17 04:42:03;;;;;;;;;;;;;;;;;;5416163;26;20815;-59
2024/04/17 04:44:28;;;;;;;;;;;;;;;;;;5418720;26;20023;-58
2024/04/17 04:46:56;;;;;;;;;;;;;;;;;;5440686;26;19936;-59
2024/04/17 04:49:21;;;;;;;;;;;;;;;;;;5450667;26;19928;-58
2024/04/17 04:51:46;;;;;;;;;;;;;;;;;;5450795;26;19935;-59
2024/04/17 04:54:11;;;;;;;;;;;;;;;;;;5450618;26;19935;-59
2024/04/17 04:56:36;;;;;;;;;;;;;;;;;;5450641;26;19939;-59
2024/04/17 04:59:01;;;;;;;;;;;;;;;;;;5450450;26;19981;-59
2024/04/17 05:01:26;;;;;;;;;;;;;;;;;;5450320;26;19948;-59
2024/04/17 05:03:52;;;;;;;;;;;;;;;;;;5450466;26;19929;-59
2024/04/17 05:06:17;;;;;;;;;;;;;;;;;;5450799;26;19928;-59
2024/04/17 05:08:42;;;;;;;;;;;;;;;;;;5443171;26;19928;-60
2024/04/17 05:11:10;;;;;;;;;;;;;;;;;;5450278;26;19929;-60
2024/04/17 05:13:35;;;;;;;;;;;;;;;;;;5434309;26;19936;-60
2024/04/17 05:16:00;;;;;;;;;;;;;;;;;;5442491;26;19928;-60
2024/04/17 05:18:25;;;;;;;;;;;;;;;;;;5449444;26;19944;-61
2024/04/17 05:20:50;;;;;;;;;;;;;;;;;;5450030;26;20043;-60
2024/04/17 05:23:16;;;;;;;;;;;;;;;;;;5450550;26;19935;-60
2024/04/17 05:25:41;;;;;;;;;;;;;;;;;;5450027;26;19929;-61
2024/04/17 05:28:06;;;;;;;;;;;;;;;;;;5449910;26;19936;-62
2024/04/17 05:30:32;;;;;;;;;;;;;;;;;;5450340;26;19928;-61
2024/04/17 05:32:57;;;;;;;;;;;;;;;;;;5449900;26;20178;-61
2024/04/17 05:35:22;;;;;;;;;;;;;;;;;;5450276;26;19929;-61
2024/04/17 05:37:47;;;;;;;;;;;;;;;;;;5448866;26;20297;-61
2024/04/17 05:40:12;;;;;;;;;;;;;;;;;;5441081;26;20000;-61
2024/04/17 05:42:37;;;;;;;;;;;;;;;;;;5436115;26;19932;-61
2024/04/17 05:45:03;;;;;;;;;;;;;;;;;;5429683;26;19939;-61
2024/04/17 05:47:28;;;;;;;;;;;;;;;;;;5414802;26;19928;-61
2024/04/17 05:49:53;;;;;;;;;;;;;;;;;;5415169;26;19929;-61
2024/04/17 05:52:20;;;;;;;;;;;;;;;;;;5414637;26;19933;-61
2024/04/17 05:54:45;;;;;;;;;;;;;;;;;;5436700;26;20269;-61
2024/04/17 05:57:10;;;;;;;;;;;;;;;;;;5449847;26;19929;-61
2024/04/17 05:59:35;;;;;;;;;;;;;;;;;;5449554;26;19940;-62
2024/04/17 06:02:00;;;;;;;;;;;;;;;;;;5449944;26;19933;-61
2024/04/17 06:04:26;;;;;;;;;;;;;;;;;;5449723;26;20262;-61
2024/04/17 06:06:51;;;;;;;;;;;;;;;;;;5449754;26;19929;-61
2024/04/17 06:09:16;;;;;;;;;;;;;;;;;;5449887;26;19936;-61
2024/04/17 06:11:41;;;;;;;;;;;;;;;;;;5449384;26;19932;-61
2024/04/17 06:14:06;;;;;;;;;;;;;;;;;;5425452;26;19933;-61
2024/04/17 06:16:31;;;;;;;;;;;;;;;;;;5417005;26;19929;-62
2024/04/17 06:18:56;;;;;;;;;;;;;;;;;;5414769;26;19983;-62
2024/04/17 06:21:21;;;;;;;;;;;;;;;;;;5414907;26;19929;-62
2024/04/17 06:23:47;;;;;;;;;;;;;;;;;;5414508;26;19936;-61
2024/04/17 06:26:12;;;;;;;;;;;;;;;;;;5414668;26;19953;-62
2024/04/17 06:28:38;;;;;;;;;;;;;;;;;;5440006;26;19939;-62
2024/04/17 06:31:03;;;;;;;;;;;;;;;;;;5439549;26;19929;-62
2024/04/17 06:33:28;;;;;;;;;;;;;;;;;;5449312;26;20325;-62
2024/04/17 06:35:53;;;;;;;;;;;;;;;;;;5448790;26;19935;-62
2024/04/17 06:38:18;;;;;;;;;;;;;;;;;;5447435;26;19964;-61
2024/04/17 06:40:43;;;;;;;;;;;;;;;;;;5414075;26;19949;-61
2024/04/17 06:43:08;;;;;;;;;;;;;;;;;;5414747;26;19940;-62
2024/04/17 06:45:34;;;;;;;;;;;;;;;;;;5434087;26;19932;-62
2024/04/17 06:47:59;;;;;;;;;;;;;;;;;;5447355;26;19929;-62
2024/04/17 06:50:24;;;;;;;;;;;;;;;;;;5447506;26;19929;-62
2024/04/17 06:52:49;;;;;;;;;;;;;;;;;;5446198;26;20281;-62
2024/04/17 06:55:14;;;;;;;;;;;;;;;;;;5447231;26;19940;-62
2024/04/17 06:57:39;;;;;;;;;;;;;;;;;;5446843;26;20384;-62
2024/04/17 07:00:04;;;;;;;;;;;;;;;;;;5446601;26;19928;-62
2024/04/17 07:02:29;;;;;;;;;;;;;;;;;;5446881;26;19929;-62
2024/04/17 07:04:55;;;;;;;;;;;;;;;;;;5446828;26;20692;-62
2024/04/17 07:07:20;;;;;;;;;;;;;;;;;;5450242;26;19956;-62
2024/04/17 07:09:45;;;;;;;;;;;;;;;;;;5451187;26;19940;-62
2024/04/17 07:12:10;;;;;;;;;;;;;;;;;;5445568;26;19935;-62
2024/04/17 07:14:35;;;;;;;;;;;;;;;;;;5441046;26;19943;-62
2024/04/17 07:17:00;;;;;;;;;;;;;;;;;;5450650;26;20469;-62
2024/04/17 07:19:25;;;;;;;;;;;;;;;;;;5438843;26;19983;-62
2024/04/17 07:21:51;;;;;;;;;;;;;;;;;;5451748;26;19928;-62
2024/04/17 07:24:16;;;;;;;;;;;;;;;;;;5451851;26;19980;-62
2024/04/17 07:26:41;;;;;;;;;;;;;;;;;;5451513;26;19928;-62
2024/04/17 07:29:06;;;;;;;;;;;;;;;;;;5451838;26;19936;-62
2024/04/17 07:31:32;;;;;;;;;;;;;;;;;;5440361;26;19945;-62
2024/04/17 07:33:57;;;;;;;;;;;;;;;;;;5440223;26;19936;-62
2024/04/17 07:36:22;;;;;;;;;;;;;;;;;;5442697;26;19929;-62
2024/04/17 07:38:47;;;;;;;;;;;;;;;;;;5451570;26;19928;-62
2024/04/17 07:41:13;;;;;;;;;;;;;;;;;;5451505;26;19936;-62
2024/04/17 07:43:38;;;;;;;;;;;;;;;;;;5436026;26;19998;-62
2024/04/17 07:46:03;;;;;;;;;;;;;;;;;;5429515;26;19996;-62
2024/04/17 07:48:28;;;;;;;;;;;;;;;;;;5451243;26;19928;-62
2024/04/17 07:50:53;;;;;;;;;;;;;;;;;;5450967;26;19929;-62
2024/04/17 07:53:18;;;;;;;;;;;;;;;;;;5451212;26;19928;-62
2024/04/17 07:55:43;;;;;;;;;;;;;;;;;;5451239;26;19928;-62
2024/04/17 07:58:08;;;;;;;;;;;;;;;;;;5451416;26;19936;-62
2024/04/17 08:00:35;;;;;;;;;;;;;;;;;;5451184;26;19936;-62
2024/04/17 08:03:00;;;;;;;;;;;;;;;;;;5451309;26;19935;-62
2024/04/17 08:05:25;;;;;;;;;;;;;;;;;;5451356;26;19940;-62
2024/04/17 08:07:50;;;;;;;;;;;;;;;;;;5451620;26;19929;-62
2024/04/17 08:10:15;;;;;;;;;;;;;;;;;;5451165;26;19936;-62
2024/04/17 08:12:41;;;;;;;;;;;;;;;;;;5448890;26;19960;-62
2024/04/17 08:15:06;;;;;;;;;;;;;;;;;;5445164;26;19936;-62
2024/04/17 08:17:31;;;;;;;;;;;;;;;;;;5450184;26;19940;-62
2024/04/17 08:19:58;;;;;;;;;;;;;;;;;;5451198;26;20277;-63
2024/04/17 08:22:23;;;;;;;;;;;;;;;;;;5450701;26;19929;-63
2024/04/17 08:24:48;;;;;;;;;;;;;;;;;;5444448;26;20331;-62
2024/04/17 08:27:13;;;;;;;;;;;;;;;;;;5431900;26;20265;-62
2024/04/17 08:29:38;;;;;;;;;;;;;;;;;;5450789;26;19965;-62
2024/04/17 08:32:04;;;;;;;;;;;;;;;;;;5450877;26;19948;-62
2024/04/17 08:34:29;;;;;;;;;;;;;;;;;;5451060;26;19929;-63
2024/04/17 08:36:54;;;;;;;;;;;;;;;;;;5451423;26;19956;-63
2024/04/17 08:39:19;;;;;;;;;;;;;;;;;;5451365;26;19940;-62
2024/04/17 08:41:44;;;;;;;;;;;;;;;;;;5442251;26;19955;-62
2024/04/17 08:44:10;;;;;;;;;;;;;;;;;;5441562;26;19928;-62
2024/04/17 08:46:36;;;;;;;;;;;;;;;;;;5450753;26;20005;-62
2024/04/17 08:49:01;;;;;;;;;;;;;;;;;;5450888;26;19949;-62
2024/04/17 08:51:26;;;;;;;;;;;;;;;;;;5450852;26;20001;-63
2024/04/17 08:53:51;;;;;;;;;;;;;;;;;;5450310;26;19939;-63
2024/04/17 08:56:17;;;;;;;;;;;;;;;;;;5450390;26;19928;-63
2024/04/17 08:58:42;;;;;;;;;;;;;;;;;;5450822;26;19936;-62
2024/04/17 09:01:07;;;;;;;;;;;;;;;;;;5450619;26;19928;-63
2024/04/17 09:03:32;;;;;;;;;;;;;;;;;;5450920;26;20293;-63
2024/04/17 09:05:57;;;;;;;;;;;;;;;;;;5447504;26;19928;-62
2024/04/17 09:08:22;;;;;;;;;;;;;;;;;;5416181;26;19941;-63
2024/04/17 09:10:47;;;;;;;;;;;;;;;;;;5415623;26;19929;-63
2024/04/17 09:13:12;;;;;;;;;;;;;;;;;;5417535;26;19929;-63
2024/04/17 09:15:37;;;;;;;;;;;;;;;;;;5415193;26;19953;-63
2024/04/17 09:18:03;;;;;;;;;;;;;;;;;;5428576;26;19937;-63
2024/04/17 09:20:28;;;;;;;;;;;;;;;;;;5450515;26;19928;-63
2024/04/17 09:22:53;;;;;;;;;;;;;;;;;;5450194;26;19929;-63
2024/04/17 09:25:18;;;;;;;;;;;;;;;;;;5450764;26;19936;-63
2024/04/17 09:27:43;;;;;;;;;;;;;;;;;;5449744;26;19928;-62
2024/04/17 09:30:09;;;;;;;;;;;;;;;;;;5449013;26;19929;-63
2024/04/17 09:32:34;;;;;;;;;;;;;;;;;;5449988;26;19928;-60
2024/04/17 09:34:59;;;;;;;;;;;;;;;;;;5449861;26;19928;-60
2024/04/17 09:37:24;;;;;;;;;;;;;;;;;;5438774;26;19983;-60
2024/04/17 09:39:49;;;;;;;;;;;;;;;;;;5415260;26;19929;-60
2024/04/17 09:42:14;;;;;;;;;;;;;;;;;;5419419;26;19942;-60
2024/04/17 09:44:39;;;;;;;;;;;;;;;;;;5417915;26;19929;-60
2024/04/17 09:47:05;;;;;;;;;;;;;;;;;;5414796;26;19929;-59
2024/04/17 09:49:30;;;;;;;;;;;;;;;;;;5414722;26;20381;-59
2024/04/17 09:51:55;;;;;;;;;;;;;;;;;;5425450;26;19929;-60
2024/04/17 09:54:20;;;;;;;;;;;;;;;;;;5449410;26;20362;-59
2024/04/17 09:56:45;;;;;;;;;;;;;;;;;;5449752;26;19929;-59
2024/04/17 09:59:10;;;;;;;;;;;;;;;;;;5449694;26;19940;-59
2024/04/17 10:01:36;;;;;;;;;;;;;;;;;;5449172;26;19935;-60
2024/04/17 10:04:01;;;;;;;;;;;;;;;;;;5449513;26;19935;-59
2024/04/17 10:06:26;;;;;;;;;;;;;;;;;;5445905;26;19928;-60
2024/04/17 10:08:51;;;;;;;;;;;;;;;;;;5425069;26;19933;-60
2024/04/17 10:11:16;;;;;;;;;;;;;;;;;;5449447;26;19935;-60
2024/04/17 10:13:41;;;;;;;;;;;;;;;;;;5430503;26;19936;-61
2024/04/17 10:16:07;;;;;;;;;;;;;;;;;;5416434;26;19935;-60
2024/04/17 10:18:32;;;;;;;;;;;;;;;;;;5420242;26;19975;-60
2024/04/17 10:20:57;;;;;;;;;;;;;;;;;;5414570;26;20387;-60
2024/04/17 10:23:22;;;;;;;;;;;;;;;;;;5414701;26;19935;-60
2024/04/17 10:25:47;;;;;;;;;;;;;;;;;;5423651;26;19935;-61
2024/04/17 10:28:12;;;;;;;;;;;;;;;;;;5449040;26;19943;-60
2024/04/17 10:30:37;;;;;;;;;;;;;;;;;;5434319;26;19929;-60
2024/04/17 10:33:03;;;;;;;;;;;;;;;;;;5447582;26;19936;-60
2024/04/17 10:35:32;;;;;;;;;;;;;;;;;;5447663;26;19968;-60
2024/04/17 10:37:57;;;;;;;;;;;;;;;;;;5447871;26;19935;-61
2024/04/17 10:40:23;;;;;;;;;;;;;;;;;;5448856;26;19929;-62
2024/04/17 10:42:48;;;;;;;;;;;;;;;;;;5446999;26;19939;-60
2024/04/17 10:45:13;;;;;;;;;;;;;;;;;;5435500;26;19928;-60
2024/04/17 10:47:39;;;;;;;;;;;;;;;;;;5426061;26;19994;-60
2024/04/17 10:50:04;;;;;;;;;;;;;;;;;;5451295;26;19994;-60
2024/04/17 10:52:29;;;;;;;;;;;;;;;;;;5451557;26;19940;-61
2024/04/17 10:54:54;;;;;;;;;;;;;;;;;;5451274;26;19935;-62
2024/04/17 10:57:19;;;;;;;;;;;;;;;;;;5450958;26;20273;-63
2024/04/17 10:59:44;;;;;;;;;;;;;;;;;;5451070;26;19940;-62
2024/04/17 11:02:10;;;;;;;;;;;;;;;;;;5450963;26;20510;-62
2024/04/17 11:04:35;;;;;;;;;;;;;;;;;;5451126;26;19997;-63
2024/04/17 11:07:00;;;;;;;;;;;;;;;;;;5452418;26;19935;-63
2024/04/17 11:09:25;;;;;;;;;;;;;;;;;;5451975;26;19928;-62
2024/04/17 11:11:50;;;;;;;;;;;;;;;;;;5452140;26;19928;-63
2024/04/17 11:14:15;;;;;;;;;;;;;;;;;;5430771;26;20354;-63
2024/04/17 11:16:41;;;;;;;;;;;;;;;;;;5425356;26;19929;-63
2024/04/17 11:19:06;;;;;;;;;;;;;;;;;;5452156;26;19960;-60
2024/04/17 11:21:31;;;;;;;;;;;;;;;;;;5452114;26;19942;-61
2024/04/17 11:23:56;;;;;;;;;;;;;;;;;;5448461;26;20027;-60
2024/04/17 11:26:21;;;;;;;;;;;;;;;;;;5418329;26;19994;-61
2024/04/17 11:28:46;;;;;;;;;;;;;;;;;;5416792;26;19941;-61
2024/04/17 11:31:13;;;;;;;;;;;;;;;;;;5429338;26;20421;-60
2024/04/17 11:33:38;;;;;;;;;;;;;;;;;;5451233;26;19936;-61
2024/04/17 11:36:03;;;;;;;;;;;;;;;;;;5451820;26;19929;-61
2024/04/17 11:38:28;;;;;;;;;;;;;;;;;;5451471;26;19978;-61
2024/04/17 11:40:54;;;;;;;;;;;;;;;;;;5450944;26;20380;-60
2024/04/17 11:43:19;;;;;;;;;;;;;;;;;;5440938;26;20398;-60
2024/04/17 11:45:44;;;;;;;;;;;;;;;;;;5416238;26;19963;-60
2024/04/17 11:48:09;;;;;;;;;;;;;;;;;;5424628;26;19936;-61
2024/04/17 11:50:34;;;;;;;;;;;;;;;;;;5423316;26;19928;-61
2024/04/17 11:52:59;;;;;;;;;;;;;;;;;;5450018;26;19969;-61
2024/04/17 11:55:24;;;;;;;;;;;;;;;;;;5451094;26;19928;-61
2024/04/17 11:57:49;;;;;;;;;;;;;;;;;;5450972;26;19929;-62
2024/04/17 12:00:15;;;;;;;;;;;;;;;;;;5451031;26;19928;-62
2024/04/17 12:02:40;;;;;;;;;;;;;;;;;;5449691;26;19937;-61
2024/04/17 12:05:05;;;;;;;;;;;;;;;;;;5451098;26;19933;-60
2024/04/17 12:07:30;;;;;;;;;;;;;;;;;;5451194;26;19929;-61
2024/04/17 12:09:55;;;;;;;;;;;;;;;;;;5451312;26;19997;-61
2024/04/17 12:12:21;;;;;;;;;;;;;;;;;;5451230;26;20519;-61
2024/04/17 12:14:46;;;;;;;;;;;;;;;;;;5419145;26;19929;-60
2024/04/17 12:17:12;;;;;;;;;;;;;;;;;;5425497;26;19997;-61
2024/04/17 12:19:37;;;;;;;;;;;;;;;;;;5443327;26;20373;-60
2024/04/17 12:22:02;;;;;;;;;;;;;;;;;;5451111;26;20011;-60
2024/04/17 12:26:49;;;;;;;;;;;;;;;;;;5451021;26;20372;-61
2024/04/17 12:27:12;;;;;;;;;;;;;;;;;;5450595;26;19925;-60
2024/04/17 12:29:37;;;;;;;;;;;;;;;;;;5450708;26;19934;-60
2024/04/17 12:32:02;;;;;;;;;;;;;;;;;;5450900;26;19935;-60
2024/04/17 12:34:28;;;;;;;;;;;;;;;;;;5450706;26;19998;-60
2024/04/17 12:36:53;;;;;;;;;;;;;;;;;;5448850;26;20446;-61
2024/04/17 12:39:18;;;;;;;;;;;;;;;;;;5415793;26;20372;-61
2024/04/17 12:41:43;;;;;;;;;;;;;;;;;;5433342;26;20392;-60
2024/04/17 12:44:08;;;;;;;;;;;;;;;;;;5427749;26;19937;-62
2024/04/17 12:46:33;;;;;;;;;;;;;;;;;;5415834;26;20001;-61
2024/04/17 12:48:58;;;;;;;;;;;;;;;;;;5430082;26;19928;-60
2024/04/17 12:51:24;;;;;;;;;;;;;;;;;;5450544;26;19939;-61
2024/04/17 12:53:49;;;;;;;;;;;;;;;;;;5449803;26;19939;-61
2024/04/17 12:56:16;;;;;;;;;;;;;;;;;;5450076;26;20021;-61
2024/04/17 12:58:41;;;;;;;;;;;;;;;;;;5450484;26;20102;-61
2024/04/17 13:01:08;;;;;;;;;;;;;;;;;;5449691;26;20460;-60
2024/04/17 13:03:34;;;;;;;;;;;;;;;;;;5450818;26;19947;-61
2024/04/17 13:05:59;;;;;;;;;;;;;;;;;;5450114;26;20308;-61
2024/04/17 13:08:24;;;;;;;;;;;;;;;;;;5450237;26;20262;-59
2024/04/17 13:10:49;;;;;;;;;;;;;;;;;;5450342;26;19936;-61
2024/04/17 13:13:14;;;;;;;;;;;;;;;;;;5439885;26;19998;-60
2024/04/17 13:15:39;;;;;;;;;;;;;;;;;;5423437;26;19993;-60
2024/04/17 13:18:04;;;;;;;;;;;;;;;;;;5455453;26;20031;-60
2024/04/17 13:20:30;;;;;;;;;;;;;;;;;;5451736;26;20483;-60
2024/04/17 13:22:55;;;;;;;;;;;;;;;;;;5449911;26;20472;-61
2024/04/17 13:25:20;;;;;;;;;;;;;;;;;;5450504;26;20347;-60
2024/04/17 13:27:45;;;;;;;;;;;;;;;;;;5450274;26;20300;-61
2024/04/17 13:30:10;;;;;;;;;;;;;;;;;;5440988;26;19956;-61
2024/04/17 13:32:35;;;;;;;;;;;;;;;;;;5445900;26;19928;-60
2024/04/17 13:35:00;;;;;;;;;;;;;;;;;;5449944;26;19936;-60
2024/04/17 13:37:25;;;;;;;;;;;;;;;;;;5449343;26;19936;-60
2024/04/17 13:39:51;;;;;;;;;;;;;;;;;;5449723;26;19929;-61
2024/04/17 13:42:16;;;;;;;;;;;;;;;;;;5449994;26;19928;-60
2024/04/17 13:44:41;;;;;;;;;;;;;;;;;;5418123;26;19937;-60
2024/04/17 13:47:06;;;;;;;;;;;;;;;;;;5424696;26;19929;-60
2024/04/17 13:49:31;;;;;;;;;;;;;;;;;;5421124;26;20005;-61
2024/04/17 13:51:56;;;;;;;;;;;;;;;;;;5449318;26;19928;-61
2024/04/17 13:54:21;;;;;;;;;;;;;;;;;;5449285;26;19936;-61
2024/04/17 13:56:47;;;;;;;;;;;;;;;;;;5449454;26;19979;-60
2024/04/17 13:59:12;;;;;;;;;;;;;;;;;;5449310;26;19929;-60
2024/04/17 14:01:37;;;;;;;;;;;;;;;;;;5449327;26;20388;-60
2024/04/17 14:04:02;;;;;;;;;;;;;;;;;;5449670;26;19928;-60
2024/04/17 14:06:27;;;;;;;;;;;;;;;;;;5449564;26;19940;-61
2024/04/17 14:08:52;;;;;;;;;;;;;;;;;;5449222;26;19940;-61
2024/04/17 14:11:18;;;;;;;;;;;;;;;;;;5449588;26;20262;-60
2024/04/17 14:13:43;;;;;;;;;;;;;;;;;;5430542;26;19929;-60
2024/04/17 14:16:08;;;;;;;;;;;;;;;;;;5417088;26;19936;-60
2024/04/17 14:18:33;;;;;;;;;;;;;;;;;;5435546;26;19928;-60
2024/04/17 14:20:58;;;;;;;;;;;;;;;;;;5452309;26;19932;-60
2024/04/17 14:23:23;;;;;;;;;;;;;;;;;;5452764;26;19940;-60
2024/04/17 14:25:48;;;;;;;;;;;;;;;;;;5451710;26;19929;-61
2024/04/17 14:28:14;;;;;;;;;;;;;;;;;;5423559;26;19929;-60
2024/04/17 14:30:39;;;;;;;;;;;;;;;;;;5425305;26;19937;-60
2024/04/17 14:33:04;;;;;;;;;;;;;;;;;;5417761;26;20002;-59
2024/04/17 14:35:29;;;;;;;;;;;;;;;;;;5417545;26;19929;-60
2024/04/17 14:37:54;;;;;;;;;;;;;;;;;;5417788;26;19929;-60
2024/04/17 14:40:20;;;;;;;;;;;;;;;;;;5420728;26;19937;-60
2024/04/17 14:42:45;;;;;;;;;;;;;;;;;;5446692;26;20029;-60
2024/04/17 14:45:11;;;;;;;;;;;;;;;;;;5444633;26;19936;-60
2024/04/17 14:47:36;;;;;;;;;;;;;;;;;;5452660;26;20254;-60
2024/04/17 14:50:01;;;;;;;;;;;;;;;;;;5457553;26;20392;-58
2024/04/17 14:52:27;;;;;;;;;;;;;;;;;;5468976;26;20326;-58
2024/04/17 14:54:52;;;;;;;;;;;;;;;;;;5451298;26;20035;-59
2024/04/17 14:57:17;;;;;;;;;;;;;;;;;;5462983;26;19941;-60
2024/04/17 14:59:43;;;;;;;;;;;;;;;;;;5449531;26;20342;-59
2024/04/17 15:02:08;;;;;;;;;;;;;;;;;;5448628;26;20018;-59
2024/04/17 15:04:33;;;;;;;;;;;;;;;;;;5450659;26;19936;-59
2024/04/17 15:07:00;;;;;;;;;;;;;;;;;;5454260;26;19939;-60
2024/04/17 15:09:25;;;;;;;;;;;;;;;;;;5442381;26;19936;-60
2024/04/17 15:11:50;;;;;;;;;;;;;;;;;;5419047;26;19941;-59
2024/04/17 15:14:15;;;;;;;;;;;;;;;;;;5454492;26;19928;-61
2024/04/17 15:16:43;;;;;;;;;;;;;;;;;;5450078;26;19998;-59
2024/04/17 15:19:08;;;;;;;;;;;;;;;;;;5443769;26;19928;-60
2024/04/17 15:21:34;;;;;;;;;;;;;;;;;;5450475;26;20334;-61
2024/04/17 15:23:59;;;;;;;;;;;;;;;;;;5429463;26;20008;-60
2024/04/17 15:26:25;;;;;;;;;;;;;;;;;;5423156;26;19960;-59
2024/04/17 15:28:50;;;;;;;;;;;;;;;;;;5450067;26;19934;-59
2024/04/17 15:31:15;;;;;;;;;;;;;;;;;;5441049;26;20277;-60
2024/04/17 15:33:41;;;;;;;;;;;;;;;;;;5450646;26;19935;-61
2024/04/17 15:36:06;;;;;;;;;;;;;;;;;;5450359;26;19964;-61
2024/04/17 15:38:31;;;;;;;;;;;;;;;;;;5449994;26;19960;-61
2024/04/17 15:40:56;;;;;;;;;;;;;;;;;;5450146;26;19928;-61
2024/04/17 15:43:21;;;;;;;;;;;;;;;;;;5439645;26;19933;-61
2024/04/17 15:45:46;;;;;;;;;;;;;;;;;;5434590;26;20353;-61
2024/04/17 15:48:11;;;;;;;;;;;;;;;;;;5449023;26;20277;-61
2024/04/17 15:50:36;;;;;;;;;;;;;;;;;;5450355;26;19928;-61
2024/04/17 15:53:02;;;;;;;;;;;;;;;;;;5450048;26;19932;-62
2024/04/17 15:55:27;;;;;;;;;;;;;;;;;;5445571;26;20338;-61
2024/04/17 15:57:52;;;;;;;;;;;;;;;;;;5451199;26;19936;-64
2024/04/17 16:00:18;;;;;;;;;;;;;;;;;;5450563;26;19933;-61
2024/04/17 16:02:44;;;;;;;;;;;;;;;;;;5450804;26;20304;-60
2024/04/17 16:05:09;;;;;;;;;;;;;;;;;;5450703;26;19928;-61
2024/04/17 16:07:34;;;;;;;;;;;;;;;;;;5450582;26;19928;-61
2024/04/17 16:09:59;;;;;;;;;;;;;;;;;;5450263;26;19935;-61
2024/04/17 16:12:25;;;;;;;;;;;;;;;;;;5449820;26;19928;-59
2024/04/17 16:14:50;;;;;;;;;;;;;;;;;;5417676;26;19929;-59
2024/04/17 16:17:15;;;;;;;;;;;;;;;;;;5425402;26;20359;-59
2024/04/17 16:19:40;;;;;;;;;;;;;;;;;;5475131;26;20302;-60
2024/04/17 16:22:05;;;;;;;;;;;;;;;;;;5464482;26;19931;-60
2024/04/17 16:24:30;;;;;;;;;;;;;;;;;;5447346;26;19940;-60
2024/04/17 16:26:55;;;;;;;;;;;;;;;;;;5446541;26;19940;-60
2024/04/17 16:29:21;;;;;;;;;;;;;;;;;;5449104;26;19928;-62
2024/04/17 16:31:47;;;;;;;;;;;;;;;;;;5444024;26;20341;-62